createdAt,value
2018-07-20T00:00:22.914Z,73.70
2018-07-20T00:02:25.141Z,73.50
2018-07-20T00:04:27.358Z,73.70
2018-07-20T00:06:29.628Z,74.10
2018-07-20T00:08:31.853Z,74.30
2018-07-20T00:10:34.098Z,74.40
2018-07-20T00:12:36.348Z,74.30
2018-07-20T00:14:38.585Z,74.30
2018-07-20T00:16:40.935Z,74.50
2018-07-20T00:18:43.316Z,74.40
2018-07-20T00:20:45.574Z,74.50
2018-07-20T00:22:47.837Z,74.30
2018-07-20T00:24:51.049Z,74.50
2018-07-20T00:26:53.297Z,74.70
2018-07-20T00:28:55.567Z,75.10
2018-07-20T00:30:57.838Z,74.50
2018-07-20T00:33:00.128Z,74.90
2018-07-20T00:35:02.384Z,75.00
2018-07-20T00:37:04.636Z,75.10
2018-07-20T00:39:08.081Z,74.90
2018-07-20T00:41:10.349Z,75.10
2018-07-20T00:43:12.598Z,75.30
2018-07-20T00:45:14.751Z,75.40
2018-07-20T00:47:16.909Z,75.60
2018-07-20T00:49:19.038Z,75.60
2018-07-20T00:51:21.222Z,75.50
2018-07-20T00:53:23.398Z,75.40
2018-07-20T00:55:25.515Z,75.50
2018-07-20T00:57:27.678Z,75.60
2018-07-20T00:59:29.813Z,75.50
2018-07-20T01:01:31.959Z,75.60
2018-07-20T01:03:34.098Z,75.70
2018-07-20T01:05:36.322Z,75.70
2018-07-20T01:07:38.485Z,75.90
2018-07-20T01:09:40.598Z,76.00
2018-07-20T01:11:42.758Z,76.30
2018-07-20T01:13:44.898Z,76.50
2018-07-20T01:15:47.052Z,76.20
2018-07-20T01:17:49.227Z,76.00
2018-07-20T01:19:51.369Z,75.90
2018-07-20T01:21:53.519Z,76.00
2018-07-20T01:23:55.710Z,75.80
2018-07-20T01:25:57.946Z,76.10
2018-07-20T01:28:00.066Z,76.00
2018-07-20T01:30:02.237Z,76.20
2018-07-20T01:32:04.530Z,76.20
2018-07-20T01:34:06.666Z,76.50
2018-07-20T01:36:08.789Z,76.40
2018-07-20T01:38:10.921Z,76.30
2018-07-20T01:40:13.062Z,76.20
2018-07-20T01:42:15.233Z,76.40
2018-07-20T01:44:17.341Z,76.30
2018-07-20T01:46:19.471Z,76.80
2018-07-20T01:48:21.605Z,76.70
2018-07-20T01:50:23.713Z,76.80
2018-07-20T01:52:25.818Z,76.90
2018-07-20T01:54:28.179Z,77.10
2018-07-20T01:56:30.311Z,76.80
2018-07-20T01:58:32.431Z,76.80
2018-07-20T02:00:34.580Z,76.90
2018-07-20T02:02:36.714Z,77.00
2018-07-20T02:04:38.834Z,77.10
2018-07-20T02:06:40.970Z,76.90
2018-07-20T02:08:43.119Z,77.10
2018-07-20T02:10:48.338Z,77.00
2018-07-20T02:12:50.644Z,76.90
2018-07-20T02:14:52.790Z,77.20
2018-07-20T02:16:54.925Z,77.20
2018-07-20T02:18:57.051Z,77.30
2018-07-20T02:20:59.219Z,77.30
2018-07-20T02:23:01.357Z,77.10
2018-07-20T02:25:03.535Z,77.30
2018-07-20T02:27:05.823Z,77.20
2018-07-20T02:29:07.950Z,77.20
2018-07-20T02:31:10.101Z,77.40
2018-07-20T02:33:12.234Z,77.30
2018-07-20T02:35:14.379Z,77.40
2018-07-20T02:37:16.511Z,77.40
2018-07-20T02:39:18.650Z,77.40
2018-07-20T02:41:20.764Z,77.30
2018-07-20T02:43:22.896Z,77.50
2018-07-20T02:45:25.063Z,77.40
2018-07-20T02:47:27.175Z,77.20
2018-07-20T02:49:29.278Z,77.50
2018-07-20T02:51:31.418Z,77.60
2018-07-20T02:53:33.594Z,77.50
2018-07-20T02:55:35.730Z,77.40
2018-07-20T02:57:37.878Z,77.70
2018-07-20T02:59:39.996Z,77.60
2018-07-20T03:01:42.110Z,77.90
2018-07-20T03:03:44.226Z,78.00
2018-07-20T03:05:46.374Z,78.10
2018-07-20T03:07:48.478Z,78.10
2018-07-20T03:09:50.626Z,78.20
2018-07-20T03:11:52.750Z,78.30
2018-07-20T03:13:54.887Z,78.40
2018-07-20T03:15:57.042Z,78.40
2018-07-20T03:17:59.161Z,78.50
2018-07-20T03:20:01.386Z,78.60
2018-07-20T03:22:03.538Z,78.60
2018-07-20T03:24:05.635Z,78.60
2018-07-20T03:26:07.914Z,78.80
2018-07-20T03:28:10.430Z,78.70
2018-07-20T03:30:12.631Z,78.70
2018-07-20T03:32:14.758Z,78.60
2018-07-20T03:34:16.886Z,78.70
2018-07-20T03:36:19.009Z,78.90
2018-07-20T03:38:21.146Z,79.00
2018-07-20T03:40:23.297Z,79.10
2018-07-20T03:42:25.454Z,79.10
2018-07-20T03:44:27.614Z,79.10
2018-07-20T03:46:29.746Z,79.30
2018-07-20T03:48:31.878Z,79.50
2018-07-20T03:50:34.023Z,79.30
2018-07-20T03:52:36.158Z,79.30
2018-07-20T03:54:38.277Z,79.30
2018-07-20T03:56:40.425Z,79.70
2018-07-20T03:58:42.535Z,79.60
2018-07-20T04:00:44.645Z,79.70
2018-07-20T04:02:46.783Z,79.60
2018-07-20T04:04:48.890Z,79.20
2018-07-20T04:06:51.007Z,79.10
2018-07-20T04:08:53.139Z,78.90
2018-07-20T04:10:55.259Z,79.10
2018-07-20T04:12:57.398Z,79.00
2018-07-20T04:14:59.562Z,79.10
2018-07-20T04:17:01.674Z,79.10
2018-07-20T04:19:03.772Z,79.40
2018-07-20T04:21:05.946Z,79.10
2018-07-20T04:23:08.079Z,78.60
2018-07-20T04:25:10.258Z,78.80
2018-07-20T04:27:12.493Z,78.80
2018-07-20T04:29:14.634Z,78.80
2018-07-20T04:31:16.798Z,78.60
2018-07-20T04:33:18.942Z,78.80
2018-07-20T04:35:21.070Z,79.00
2018-07-20T04:37:23.206Z,78.80
2018-07-20T04:39:25.294Z,78.90
2018-07-20T04:41:27.422Z,79.00
2018-07-20T04:43:29.606Z,79.00
2018-07-20T04:45:31.746Z,78.80
2018-07-20T04:47:33.866Z,79.10
2018-07-20T04:49:35.995Z,79.20
2018-07-20T04:51:38.297Z,79.10
2018-07-20T04:53:40.436Z,79.10
2018-07-20T04:55:42.586Z,78.80
2018-07-20T04:57:44.801Z,78.60
2018-07-20T04:59:46.913Z,78.60
2018-07-20T05:01:49.043Z,78.30
2018-07-20T05:03:51.240Z,78.60
2018-07-20T05:05:53.409Z,78.30
2018-07-20T05:07:55.502Z,78.00
2018-07-20T05:09:57.610Z,78.30
2018-07-20T05:11:59.767Z,78.80
2018-07-20T05:14:01.939Z,78.60
2018-07-20T05:16:04.102Z,78.50
2018-07-20T05:18:06.267Z,78.70
2018-07-20T05:20:08.403Z,78.50
2018-07-20T05:22:10.518Z,78.40
2018-07-20T05:24:12.651Z,78.30
2018-07-20T05:26:14.782Z,78.50
2018-07-20T05:28:16.900Z,78.40
2018-07-20T05:30:19.016Z,78.20
2018-07-20T05:32:21.258Z,78.40
2018-07-20T05:34:23.422Z,78.10
2018-07-20T05:36:25.571Z,78.40
2018-07-20T05:38:27.710Z,78.10
2018-07-20T05:40:29.830Z,77.80
2018-07-20T05:42:32.026Z,77.60
2018-07-20T05:44:34.149Z,77.50
2018-07-20T05:46:36.317Z,77.70
2018-07-20T05:48:38.538Z,78.00
2018-07-20T05:50:40.718Z,77.40
2018-07-20T05:52:42.867Z,77.50
2018-07-20T05:54:45.018Z,77.90
2018-07-20T05:56:47.173Z,77.50
2018-07-20T05:58:49.375Z,77.80
2018-07-20T06:00:51.530Z,77.90
2018-07-20T06:02:53.713Z,77.80
2018-07-20T06:04:55.849Z,77.20
2018-07-20T06:06:57.994Z,76.90
2018-07-20T06:09:00.178Z,76.90
2018-07-20T06:11:02.318Z,75.90
2018-07-20T06:13:04.482Z,76.50
2018-07-20T06:15:06.735Z,76.00
2018-07-20T06:17:08.881Z,75.40
2018-07-20T06:19:11.023Z,74.90
2018-07-20T06:21:13.161Z,74.60
2018-07-20T06:23:15.341Z,74.50
2018-07-20T06:25:17.494Z,73.90
2018-07-20T06:27:19.687Z,73.60
2018-07-20T06:29:22.350Z,73.80
2018-07-20T06:31:24.589Z,73.10
2018-07-20T06:33:26.929Z,70.80
2018-07-20T06:35:29.136Z,70.80
2018-07-20T06:37:31.518Z,69.60
2018-07-20T06:39:33.646Z,70.00
2018-07-20T06:41:35.838Z,70.10
2018-07-20T06:43:37.962Z,69.20
2018-07-20T06:45:40.107Z,67.30
2018-07-20T06:47:42.283Z,68.40
2018-07-20T06:49:44.460Z,67.70
2018-07-20T06:51:46.602Z,67.60
2018-07-20T06:53:48.947Z,66.90
2018-07-20T06:55:51.119Z,66.70
2018-07-20T06:57:53.370Z,65.80
2018-07-20T06:59:57.693Z,64.70
2018-07-20T07:02:00.561Z,64.80
2018-07-20T07:04:02.710Z,64.20
2018-07-20T07:06:04.899Z,62.10
2018-07-20T07:08:07.050Z,62.60
2018-07-20T07:10:09.250Z,62.70
2018-07-20T07:12:11.405Z,63.20
2018-07-20T07:14:13.540Z,63.10
2018-07-20T07:16:15.720Z,61.10
2018-07-20T07:18:17.942Z,61.20
2018-07-20T07:20:20.122Z,61.80
2018-07-20T07:22:22.398Z,62.40
2018-07-20T07:24:24.454Z,61.60
2018-07-20T07:26:26.655Z,61.10
2018-07-20T07:28:28.820Z,60.70
2018-07-20T07:30:31.070Z,61.30
2018-07-20T07:32:33.206Z,60.80
2018-07-20T07:34:35.386Z,59.90
2018-07-20T07:36:37.694Z,60.80
2018-07-20T07:38:39.836Z,60.30
2018-07-20T07:40:41.986Z,59.20
2018-07-20T07:42:44.386Z,59.30
2018-07-20T07:44:46.538Z,58.40
2018-07-20T07:46:48.700Z,57.70
2018-07-20T07:48:50.864Z,57.40
2018-07-20T07:50:52.994Z,58.50
2018-07-20T07:52:55.271Z,58.30
2018-07-20T07:54:57.676Z,58.60
2018-07-20T07:56:59.800Z,58.70
2018-07-20T07:59:02.035Z,58.90
2018-07-20T08:01:04.353Z,59.00
2018-07-20T08:03:06.593Z,58.30
2018-07-20T08:05:08.702Z,58.70
2018-07-20T08:07:11.108Z,59.40
2018-07-20T08:09:14.117Z,57.60
2018-07-20T08:11:16.258Z,56.80
2018-07-20T08:13:18.421Z,57.30
2018-07-20T08:15:20.574Z,57.90
2018-07-20T08:17:22.742Z,58.20
2018-07-20T08:19:24.948Z,56.30
2018-07-20T08:21:27.218Z,57.70
2018-07-20T08:23:29.362Z,57.70
2018-07-20T08:25:31.535Z,58.00
2018-07-20T08:27:33.696Z,56.40
2018-07-20T08:29:36.327Z,56.30
2018-07-20T08:31:38.540Z,55.40
2018-07-20T08:33:40.678Z,56.00
2018-07-20T08:35:42.810Z,55.80
2018-07-20T08:37:44.966Z,53.30
2018-07-20T08:39:47.110Z,54.00
2018-07-20T08:41:49.252Z,53.90
2018-07-20T08:43:51.362Z,54.00
2018-07-20T08:45:53.522Z,53.60
2018-07-20T08:47:55.657Z,54.30
2018-07-20T08:49:57.810Z,53.70
2018-07-20T08:51:59.970Z,53.70
2018-07-20T08:54:02.118Z,52.30
2018-07-20T08:56:04.577Z,53.10
2018-07-20T08:58:06.730Z,53.50
2018-07-20T09:00:08.914Z,51.80
2018-07-20T09:02:11.067Z,51.70
2018-07-20T09:04:13.193Z,51.80
2018-07-20T09:06:15.343Z,51.50
2018-07-20T09:08:17.643Z,52.60
2018-07-20T09:10:19.772Z,52.80
2018-07-20T09:12:22.016Z,52.30
2018-07-20T09:14:24.166Z,51.00
2018-07-20T09:16:26.297Z,50.90
2018-07-20T09:18:28.686Z,50.80
2018-07-20T09:20:30.870Z,50.80
2018-07-20T09:22:33.095Z,51.10
2018-07-20T09:24:35.229Z,51.00
2018-07-20T09:26:37.390Z,50.10
2018-07-20T09:28:39.798Z,50.80
2018-07-20T09:30:41.942Z,51.60
2018-07-20T09:32:44.120Z,51.80
2018-07-20T09:34:46.278Z,51.70
2018-07-20T09:36:48.434Z,50.20
2018-07-20T09:38:50.555Z,49.20
2018-07-20T09:40:52.751Z,49.30
2018-07-20T09:42:54.898Z,50.10
2018-07-20T09:44:57.034Z,50.10
2018-07-20T09:46:59.200Z,48.80
2018-07-20T09:49:01.450Z,49.40
2018-07-20T09:51:03.489Z,50.10
2018-07-20T09:53:05.738Z,49.80
2018-07-20T09:55:07.883Z,49.70
2018-07-20T09:57:10.035Z,48.80
2018-07-20T09:59:12.450Z,49.20
2018-07-20T10:01:14.585Z,49.10
2018-07-20T10:03:17.110Z,48.40
2018-07-20T10:05:19.282Z,47.50
2018-07-20T10:07:21.417Z,48.90
2018-07-20T10:09:23.542Z,49.30
2018-07-20T10:11:25.694Z,48.90
2018-07-20T10:13:27.851Z,46.40
2018-07-20T10:15:30.024Z,47.20
2018-07-20T10:17:32.192Z,46.40
2018-07-20T10:19:34.347Z,46.30
2018-07-20T10:21:36.669Z,45.90
2018-07-20T10:23:38.942Z,46.10
2018-07-20T10:25:41.136Z,45.80
2018-07-20T10:29:45.362Z,45.90
2018-07-20T10:31:47.526Z,45.20
2018-07-20T10:33:49.723Z,45.40
2018-07-20T10:35:51.857Z,45.60
2018-07-20T10:37:53.952Z,45.10
2018-07-20T10:39:56.114Z,45.20
2018-07-20T10:41:58.266Z,45.10
2018-07-20T10:44:00.434Z,44.20
2018-07-20T10:46:02.621Z,42.60
2018-07-20T10:48:04.768Z,43.40
2018-07-20T10:50:07.401Z,44.90
2018-07-20T10:52:09.710Z,44.80
2018-07-20T10:54:11.843Z,45.30
2018-07-20T10:56:14.005Z,44.20
2018-07-20T10:58:16.167Z,45.20
2018-07-20T11:00:18.339Z,45.30
2018-07-20T11:02:20.483Z,45.90
2018-07-20T11:04:22.637Z,44.30
2018-07-20T11:06:24.866Z,44.30
2018-07-20T11:08:27.014Z,43.90
2018-07-20T11:10:29.174Z,42.20
2018-07-20T11:12:31.610Z,42.90
2018-07-20T11:14:33.734Z,42.80
2018-07-20T11:16:35.878Z,41.70
2018-07-20T11:18:38.176Z,41.40
2018-07-20T11:20:40.321Z,41.90
2018-07-20T11:22:42.474Z,42.20
2018-07-20T11:24:44.663Z,41.50
2018-07-20T11:26:46.793Z,41.90
2018-07-20T11:28:48.938Z,41.30
2018-07-20T11:30:51.266Z,41.60
2018-07-20T11:32:53.405Z,41.50
2018-07-20T11:34:55.563Z,40.60
2018-07-20T11:36:57.755Z,40.00
2018-07-20T11:38:59.906Z,40.60
2018-07-20T11:41:02.060Z,40.80
2018-07-20T11:43:04.286Z,39.40
2018-07-20T11:45:06.578Z,39.60
2018-07-20T11:47:08.731Z,38.00
2018-07-20T11:49:10.886Z,37.90
2018-07-20T11:51:13.019Z,37.80
2018-07-20T11:53:15.170Z,38.30
2018-07-20T11:55:17.348Z,37.80
2018-07-20T11:57:19.473Z,37.90
2018-07-20T11:59:22.867Z,38.20
2018-07-20T12:01:25.004Z,38.60
2018-07-20T12:03:27.414Z,37.20
2018-07-20T12:05:29.517Z,37.20
2018-07-20T12:07:31.666Z,38.10
2018-07-20T12:09:33.834Z,37.70
2018-07-20T12:11:36.010Z,35.80
2018-07-20T12:13:38.173Z,36.60
2018-07-20T12:15:40.341Z,37.80
2018-07-20T12:17:42.513Z,37.90
2018-07-20T12:19:44.674Z,37.20
2018-07-20T12:21:46.844Z,37.00
2018-07-20T12:23:48.991Z,37.50
2018-07-20T12:25:51.165Z,38.00
2018-07-20T12:27:53.514Z,37.10
2018-07-20T12:29:55.790Z,37.50
2018-07-20T12:31:58.063Z,37.50
2018-07-20T12:34:00.224Z,36.90
2018-07-20T12:36:02.385Z,37.30
2018-07-20T12:38:05.019Z,37.70
2018-07-20T12:40:07.166Z,37.20
2018-07-20T12:42:09.362Z,37.30
2018-07-20T12:44:11.561Z,36.90
2018-07-20T12:46:13.672Z,37.30
2018-07-20T12:48:15.823Z,39.30
2018-07-20T12:50:18.037Z,38.80
2018-07-20T12:52:20.270Z,38.60
2018-07-20T12:54:22.520Z,36.80
2018-07-20T12:56:24.834Z,36.70
2018-07-20T12:58:27.062Z,35.90
2018-07-20T13:00:29.190Z,36.10
2018-07-20T13:02:31.349Z,35.30
2018-07-20T13:04:33.486Z,35.40
2018-07-20T13:06:35.635Z,35.00
2018-07-20T13:08:37.842Z,35.00
2018-07-20T13:10:39.995Z,34.10
2018-07-20T13:12:42.166Z,35.10
2018-07-20T13:14:44.549Z,34.40
2018-07-20T13:16:46.735Z,34.30
2018-07-20T13:18:48.871Z,34.60
2018-07-20T13:20:51.019Z,34.80
2018-07-20T13:22:53.198Z,33.60
2018-07-20T13:24:55.372Z,33.30
2018-07-20T13:26:57.666Z,33.60
2018-07-20T13:28:59.952Z,33.80
2018-07-20T13:31:03.695Z,34.20
2018-07-20T13:33:05.934Z,33.30
2018-07-20T13:35:08.191Z,32.60
2018-07-20T13:37:10.379Z,32.50
2018-07-20T13:39:12.527Z,32.80
2018-07-20T13:41:14.731Z,32.80
2018-07-20T13:43:16.932Z,32.60
2018-07-20T13:45:19.113Z,31.70
2018-07-20T13:47:21.198Z,32.20
2018-07-20T13:49:23.346Z,31.90
2018-07-20T13:51:32.355Z,32.20
2018-07-20T13:53:34.576Z,32.20
2018-07-20T13:55:36.762Z,31.50
2018-07-20T13:57:39.014Z,31.60
2018-07-20T13:59:42.232Z,32.20
2018-07-20T14:01:44.512Z,32.50
2018-07-20T14:03:48.951Z,32.60
2018-07-20T14:05:51.196Z,32.20
2018-07-20T14:07:53.406Z,31.00
2018-07-20T14:09:55.615Z,30.70
2018-07-20T14:11:58.184Z,31.00
2018-07-20T14:14:00.423Z,31.10
2018-07-20T14:16:02.593Z,31.60
2018-07-20T14:18:04.763Z,31.50
2018-07-20T14:20:06.963Z,32.70
2018-07-20T14:22:09.296Z,33.10
2018-07-20T14:24:11.418Z,33.30
2018-07-20T14:26:13.672Z,33.00
2018-07-20T14:28:15.944Z,34.00
2018-07-20T14:30:18.160Z,35.80
2018-07-20T14:32:20.370Z,35.60
2018-07-20T14:34:22.529Z,35.20
2018-07-20T14:36:24.758Z,34.80
2018-07-20T14:38:26.907Z,35.10
2018-07-20T14:40:29.034Z,35.20
2018-07-20T14:42:31.223Z,34.80
2018-07-20T14:44:33.338Z,35.00
2018-07-20T14:46:35.465Z,37.60
2018-07-20T14:48:37.607Z,37.80
2018-07-20T14:50:39.734Z,37.90
2018-07-20T14:52:41.884Z,38.00
2018-07-20T14:54:44.040Z,37.70
2018-07-20T14:56:46.210Z,37.90
2018-07-20T14:58:48.398Z,38.50
2018-07-20T15:00:50.522Z,38.70
2018-07-20T15:02:52.674Z,39.10
2018-07-20T15:04:54.907Z,38.70
2018-07-20T15:06:57.073Z,39.30
2018-07-20T15:08:59.202Z,39.70
2018-07-20T15:11:01.346Z,38.60
2018-07-20T15:13:03.490Z,38.90
2018-07-20T15:15:06.810Z,39.60
2018-07-20T15:17:09.152Z,39.60
2018-07-20T15:19:11.294Z,39.80
2018-07-20T15:21:13.443Z,40.40
2018-07-20T15:23:15.592Z,40.80
2018-07-20T15:25:17.738Z,41.30
2018-07-20T15:27:19.930Z,42.20
2018-07-20T15:29:22.057Z,41.30
2018-07-20T15:31:28.172Z,41.40
2018-07-20T15:33:32.023Z,40.90
2018-07-20T15:35:36.280Z,40.10
2018-07-20T15:37:40.520Z,40.90
2018-07-20T15:39:42.641Z,41.20
2018-07-20T15:41:44.777Z,40.90
2018-07-20T15:43:47.551Z,42.90
2018-07-20T15:45:52.144Z,42.30
2018-07-20T15:47:52.055Z,42.30
2018-07-20T15:49:54.199Z,42.80
2018-07-20T15:53:35.463Z,42.70
2018-07-20T15:53:58.639Z,42.70
2018-07-20T15:56:00.662Z,42.50
2018-07-20T15:58:02.862Z,42.20
2018-07-20T16:00:05.296Z,42.70
2018-07-20T16:02:07.351Z,42.50
2018-07-20T16:04:09.503Z,42.80
2018-07-20T16:06:11.654Z,42.40
2018-07-20T16:08:13.799Z,43.70
2018-07-20T16:10:16.219Z,43.10
2018-07-20T16:12:18.382Z,42.40
2018-07-20T16:14:20.571Z,42.10
2018-07-20T16:16:22.989Z,42.20
2018-07-20T16:18:25.108Z,42.80
2018-07-20T16:20:27.267Z,43.50
2018-07-20T16:22:29.410Z,42.40
2018-07-20T16:24:31.534Z,42.70
2018-07-20T16:26:34.145Z,42.80
2018-07-20T16:28:36.380Z,42.70
2018-07-20T16:30:38.682Z,42.60
2018-07-20T16:32:40.813Z,44.00
2018-07-20T16:34:43.068Z,43.70
2018-07-20T16:36:45.306Z,44.10
2018-07-20T16:38:47.409Z,44.10
2018-07-20T16:40:49.653Z,43.70
2018-07-20T16:42:51.789Z,43.90
2018-07-20T16:44:54.202Z,43.50
2018-07-20T16:46:56.437Z,43.80
2018-07-20T16:48:58.615Z,44.20
2018-07-20T16:51:00.822Z,44.70
2018-07-20T16:53:02.986Z,44.60
2018-07-20T16:55:05.180Z,44.70
2018-07-20T16:57:07.635Z,44.70
2018-07-20T16:59:09.808Z,45.10
2018-07-20T17:01:12.078Z,45.20
2018-07-20T17:03:14.309Z,45.20
2018-07-20T17:05:16.442Z,45.40
2018-07-20T17:07:18.567Z,45.90
2018-07-20T17:09:20.874Z,45.90
2018-07-20T17:11:22.989Z,45.40
2018-07-20T17:13:25.325Z,45.60
2018-07-20T17:15:27.474Z,45.30
2018-07-20T17:17:29.599Z,45.40
2018-07-20T17:19:31.720Z,46.50
2018-07-20T17:21:34.012Z,46.20
2018-07-20T17:23:36.122Z,45.60
2018-07-20T17:25:38.381Z,46.00
2018-07-20T17:27:40.518Z,45.90
2018-07-20T17:29:42.721Z,45.70
2018-07-20T17:31:44.891Z,45.70
2018-07-20T17:33:47.114Z,46.60
2018-07-20T17:35:49.246Z,46.20
2018-07-20T17:37:51.593Z,46.00
2018-07-20T17:39:53.712Z,46.00
2018-07-20T17:41:55.939Z,45.60
2018-07-20T17:43:58.182Z,46.00
2018-07-20T17:46:00.530Z,46.20
2018-07-20T17:48:02.741Z,46.00
2018-07-20T17:50:05.253Z,46.40
2018-07-20T17:52:07.370Z,46.60
2018-07-20T17:54:09.614Z,46.20
2018-07-20T17:56:11.767Z,46.30
2018-07-20T17:58:13.937Z,46.40
2018-07-20T18:00:16.180Z,46.50
2018-07-20T18:02:18.376Z,46.80
2018-07-20T18:04:20.443Z,46.60
2018-07-20T18:06:22.618Z,47.00
2018-07-20T18:08:24.761Z,47.20
2018-07-20T18:10:26.926Z,47.00
2018-07-20T18:12:29.011Z,47.00
2018-07-20T18:14:31.305Z,47.40
2018-07-20T18:16:33.626Z,47.30
2018-07-20T18:18:36.373Z,47.20
2018-07-20T18:20:38.603Z,47.40
2018-07-20T18:22:40.739Z,47.40
2018-07-20T18:24:43.182Z,47.50
2018-07-20T18:26:45.301Z,47.30
2018-07-20T18:28:47.674Z,47.20
2018-07-20T18:30:50.191Z,47.30
2018-07-20T18:32:52.449Z,47.40
2018-07-20T18:34:54.942Z,47.80
2018-07-20T18:36:57.051Z,48.20
2018-07-20T18:38:59.282Z,48.70
2018-07-20T18:41:01.428Z,49.60
2018-07-20T18:43:03.847Z,50.20
2018-07-20T18:45:06.494Z,50.50
2018-07-20T18:47:09.502Z,50.60
2018-07-20T18:49:11.642Z,51.10
2018-07-20T18:51:13.838Z,51.50
2018-07-20T18:53:16.014Z,51.40
2018-07-20T18:55:18.311Z,51.50
2018-07-20T18:57:20.474Z,51.60
2018-07-20T18:59:22.774Z,51.90
2018-07-20T19:01:24.921Z,51.70
2018-07-20T19:03:27.294Z,52.10
2018-07-20T19:05:29.602Z,52.40
2018-07-20T19:07:31.793Z,52.40
2018-07-20T19:09:34.166Z,52.30
2018-07-20T19:11:36.386Z,52.40
2018-07-20T19:13:38.577Z,52.70
2018-07-20T19:15:40.831Z,52.60
2018-07-20T19:17:42.991Z,52.80
2018-07-20T19:19:45.575Z,52.90
2018-07-20T19:21:47.823Z,53.10
2018-07-20T19:23:49.989Z,53.10
2018-07-20T19:25:52.622Z,53.10
2018-07-20T19:27:54.865Z,53.30
2018-07-20T19:29:57.094Z,53.40
2018-07-20T19:31:59.246Z,53.50
2018-07-20T19:34:03.077Z,53.80
2018-07-20T19:36:05.299Z,54.00
2018-07-20T19:38:08.482Z,54.60
2018-07-20T19:40:10.716Z,54.80
2018-07-20T19:42:13.024Z,54.80
2018-07-20T19:44:15.170Z,54.60
2018-07-20T19:46:17.318Z,55.00
2018-07-20T19:48:19.534Z,55.10
2018-07-20T19:50:21.918Z,55.40
2018-07-20T19:52:24.214Z,55.30
2018-07-20T19:54:26.343Z,55.40
2018-07-20T19:56:28.457Z,55.80
2018-07-20T19:58:30.584Z,55.90
2018-07-20T20:00:32.715Z,56.40
2018-07-20T20:02:34.904Z,56.30
2018-07-20T20:04:37.149Z,56.90
2018-07-20T20:06:39.598Z,56.80
2018-07-20T20:08:41.851Z,57.00
2018-07-20T20:10:44.015Z,57.00
2018-07-20T20:12:46.119Z,56.90
2018-07-20T20:14:48.290Z,57.00
2018-07-20T20:16:50.481Z,57.20
2018-07-20T20:18:52.581Z,57.60
2018-07-20T20:20:54.691Z,57.30
2018-07-20T20:22:56.831Z,57.70
2018-07-20T20:24:58.938Z,57.50
2018-07-20T20:27:01.054Z,57.50
2018-07-20T20:29:03.181Z,56.90
2018-07-20T20:31:05.330Z,56.90
2018-07-20T20:33:07.446Z,57.90
2018-07-20T20:35:09.564Z,57.50
2018-07-20T20:37:11.712Z,57.80
2018-07-20T20:39:13.825Z,58.40
2018-07-20T20:41:15.948Z,57.60
2018-07-20T20:43:18.049Z,57.40
2018-07-20T20:45:20.843Z,57.20
2018-07-20T20:47:23.022Z,57.40
2018-07-20T20:49:25.468Z,57.30
2018-07-20T20:51:27.577Z,57.60
2018-07-20T20:53:29.690Z,57.90
2018-07-20T20:55:31.832Z,57.80
2018-07-20T20:57:41.682Z,58.20
2018-07-20T20:59:43.783Z,58.10
2018-07-20T21:01:45.895Z,59.00
2018-07-20T21:03:48.451Z,59.20
2018-07-20T21:05:50.555Z,58.80
2018-07-20T21:07:52.788Z,59.00
2018-07-20T21:09:54.910Z,58.30
2018-07-20T21:11:57.127Z,59.00
2018-07-20T21:13:59.163Z,58.80
2018-07-20T21:16:01.282Z,58.90
2018-07-20T21:18:03.497Z,58.90
2018-07-20T21:20:05.769Z,58.80
2018-07-20T21:22:07.874Z,58.90
2018-07-20T21:24:09.990Z,58.90
2018-07-20T21:26:12.113Z,59.20
2018-07-20T21:28:14.278Z,59.70
2018-07-20T21:30:16.417Z,60.00
2018-07-20T21:32:18.634Z,60.10
2018-07-20T21:34:20.725Z,60.20
2018-07-20T21:36:22.846Z,60.50
2018-07-20T21:38:24.967Z,60.50
2018-07-20T21:40:27.063Z,60.40
2018-07-20T21:42:29.205Z,60.70
2018-07-20T21:44:31.577Z,60.80
2018-07-20T21:46:33.739Z,61.10
2018-07-20T21:48:35.925Z,61.20
2018-07-20T21:50:38.013Z,61.30
2018-07-20T21:52:40.255Z,61.20
2018-07-20T21:54:42.480Z,61.50
2018-07-20T21:56:44.602Z,61.80
2018-07-20T21:58:46.950Z,61.80
2018-07-20T22:00:49.102Z,62.00
2018-07-20T22:02:51.242Z,62.00
2018-07-20T22:04:55.030Z,62.10
2018-07-20T22:06:57.274Z,62.10
2018-07-20T22:08:59.379Z,61.70
2018-07-20T22:11:01.482Z,62.10
2018-07-20T22:13:03.595Z,62.60
2018-07-20T22:15:06.211Z,62.50
2018-07-20T22:17:08.324Z,62.50
2018-07-20T22:19:10.427Z,62.30
2018-07-20T22:21:12.543Z,62.60
2018-07-20T22:23:14.667Z,62.70
2018-07-20T22:25:16.786Z,62.60
2018-07-20T22:27:18.948Z,62.50
2018-07-20T22:29:21.062Z,62.90
2018-07-20T22:31:23.199Z,63.30
2018-07-20T22:33:25.514Z,63.20
2018-07-20T22:35:27.606Z,63.00
2018-07-20T22:37:29.754Z,63.00
2018-07-20T22:39:31.905Z,62.90
2018-07-20T22:41:34.070Z,63.00
2018-07-20T22:43:36.178Z,62.80
2018-07-20T22:45:38.306Z,62.50
2018-07-20T22:47:40.422Z,62.50
2018-07-20T22:49:42.522Z,62.40
2018-07-20T22:51:44.695Z,62.30
2018-07-20T22:53:46.814Z,62.40
2018-07-20T22:55:48.934Z,62.50
2018-07-20T22:57:51.081Z,62.90
2018-07-20T22:59:53.213Z,62.50
2018-07-20T23:01:55.323Z,62.40
2018-07-20T23:03:57.472Z,62.50
2018-07-20T23:05:59.585Z,62.60
2018-07-20T23:08:01.750Z,62.60
2018-07-20T23:10:04.123Z,62.50
2018-07-20T23:12:06.270Z,62.60
2018-07-20T23:14:08.413Z,62.90
2018-07-20T23:16:10.546Z,63.00
2018-07-20T23:18:12.697Z,63.60
2018-07-20T23:20:14.818Z,63.40
2018-07-20T23:22:16.922Z,63.40
2018-07-20T23:24:19.026Z,63.30
2018-07-20T23:26:21.134Z,63.40
2018-07-20T23:28:23.252Z,63.20
2018-07-20T23:30:25.399Z,63.50
2018-07-20T23:32:27.498Z,63.50
2018-07-20T23:34:29.734Z,63.90
2018-07-20T23:36:31.817Z,64.50
2018-07-20T23:38:33.949Z,64.60
2018-07-20T23:40:36.114Z,64.40
2018-07-20T23:42:38.218Z,64.40
2018-07-20T23:44:40.338Z,64.50
2018-07-20T23:46:42.454Z,65.00
2018-07-20T23:48:44.578Z,65.70
2018-07-20T23:50:46.670Z,65.50
2018-07-20T23:52:48.995Z,65.50
2018-07-20T23:54:51.106Z,65.40
2018-07-20T23:56:53.202Z,65.20
2018-07-20T23:58:55.286Z,65.10
